createdAt,value
2022-09-25T00:01:19.650Z,97843.81
2022-09-25T00:03:47.643Z,97853.22
2022-09-25T00:06:23.047Z,97848.13
2022-09-25T00:08:50.989Z,97851.53
2022-09-25T00:11:28.189Z,97854.97
2022-09-25T00:13:56.244Z,97858.56
2022-09-25T00:16:26.367Z,97854.94
2022-09-25T00:19:12.697Z,97853.22
2022-09-25T00:21:40.421Z,97849.75
2022-09-25T00:24:10.366Z,97857.50
2022-09-25T00:26:41.659Z,97854.91
2022-09-25T00:29:13.805Z,97864.34
2022-09-25T00:31:41.489Z,97859.22
2022-09-25T00:34:10.330Z,97851.47
2022-09-25T00:36:37.935Z,97866.91
2022-09-25T00:39:06.335Z,97854.06
2022-09-25T00:41:34.869Z,97854.03
2022-09-25T00:44:04.414Z,97865.22
2022-09-25T00:46:35.194Z,97866.94
2022-09-25T00:49:17.543Z,97862.69
2022-09-25T00:51:57.072Z,97870.41
2022-09-25T00:54:33.519Z,97873.81
2022-09-25T00:57:04.962Z,97866.13
2022-09-25T00:59:37.923Z,97866.97
2022-09-25T01:02:07.606Z,97866.13
2022-09-25T01:04:38.220Z,97866.09
2022-09-25T01:07:08.900Z,97872.16
2022-09-25T01:09:36.862Z,97874.72
2022-09-25T01:12:05.067Z,97876.41
2022-09-25T01:14:34.868Z,97872.16
2022-09-25T01:17:24.870Z,97863.59
2022-09-25T01:20:23.284Z,97873.09
2022-09-25T01:23:02.510Z,97874.75
2022-09-25T01:26:06.997Z,97884.25
2022-09-25T01:29:12.542Z,97881.69
2022-09-25T01:32:03.399Z,97880.84
2022-09-25T01:34:43.914Z,97885.97
2022-09-25T01:37:28.034Z,97887.63
2022-09-25T01:40:08.241Z,97885.94
2022-09-25T01:42:44.895Z,97880.78
2022-09-25T01:45:43.522Z,97887.69
2022-09-25T01:48:15.055Z,97894.47
2022-09-25T01:50:51.394Z,97897.03
2022-09-25T01:53:28.474Z,97883.31
2022-09-25T01:56:01.941Z,97893.59
2022-09-25T01:58:34.728Z,97892.75
2022-09-25T02:01:08.800Z,97908.09
2022-09-25T02:03:44.086Z,97906.44
2022-09-25T02:06:17.097Z,97912.38
2022-09-25T02:08:55.746Z,97909.78
2022-09-25T02:11:28.630Z,97912.31
2022-09-25T02:14:20.450Z,97911.47
2022-09-25T02:16:55.553Z,97915.66
2022-09-25T02:19:41.639Z,97907.00
2022-09-25T02:22:20.166Z,97914.69
2022-09-25T02:24:58.629Z,97917.19
2022-09-25T02:27:29.521Z,97904.22
2022-09-25T02:29:58.492Z,97914.41
2022-09-25T02:32:30.488Z,97914.38
2022-09-25T02:34:59.998Z,97928.91
2022-09-25T02:37:28.286Z,97917.72
2022-09-25T02:40:02.309Z,97915.94
2022-09-25T02:42:55.373Z,97927.09
2022-09-25T02:45:37.743Z,97927.09
2022-09-25T02:48:10.995Z,97927.88
2022-09-25T02:50:41.205Z,97932.13
2022-09-25T02:53:14.366Z,97931.22
2022-09-25T02:55:52.225Z,97928.66
2022-09-25T02:58:24.791Z,97928.75
2022-09-25T03:00:56.042Z,97937.34
2022-09-25T03:03:26.406Z,97932.25
2022-09-25T03:05:57.424Z,97931.31
2022-09-25T03:08:41.679Z,97950.94
2022-09-25T03:11:14.496Z,97953.41
2022-09-25T03:13:43.048Z,97955.84
2022-09-25T03:16:19.691Z,97959.06
2022-09-25T03:18:47.917Z,97960.59
2022-09-25T03:21:15.887Z,97962.13
2022-09-25T03:23:43.475Z,97961.13
2022-09-25T03:26:11.619Z,97953.38
2022-09-25T03:28:39.306Z,97960.13
2022-09-25T03:31:10.889Z,97971.22
2022-09-25T03:33:41.526Z,97969.41
2022-09-25T03:36:11.152Z,97969.50
2022-09-25T03:38:41.323Z,97972.94
2022-09-25T03:41:10.405Z,97972.91
2022-09-25T03:43:39.698Z,97972.06
2022-09-25T03:46:10.392Z,97986.59
2022-09-25T03:48:38.953Z,97983.06
2022-09-25T03:51:07.044Z,97989.09
2022-09-25T03:53:35.783Z,97976.25
2022-09-25T03:56:08.988Z,97982.38
2022-09-25T03:58:36.508Z,97977.38
2022-09-25T04:01:04.381Z,97997.16
2022-09-25T04:03:33.876Z,97993.66
2022-09-25T04:06:04.938Z,98002.28
2022-09-25T04:08:34.507Z,98006.53
2022-09-25T04:11:02.601Z,98004.88
2022-09-25T04:13:35.369Z,98003.16
2022-09-25T04:16:05.022Z,98010.84
2022-09-25T04:18:32.934Z,98013.38
2022-09-25T04:21:08.563Z,98010.00
2022-09-25T04:23:37.652Z,98021.16
2022-09-25T04:26:06.182Z,98015.94
2022-09-25T04:28:34.245Z,98021.88
2022-09-25T04:31:02.715Z,98026.16
2022-09-25T04:34:02.592Z,98022.63
2022-09-25T04:36:30.034Z,98035.41
2022-09-25T04:38:57.435Z,98040.53
2022-09-25T04:41:25.046Z,98055.06
2022-09-25T04:43:52.446Z,98042.13
2022-09-25T04:46:22.398Z,98042.81
2022-09-25T04:48:50.401Z,98049.63
2022-09-25T04:51:18.148Z,98044.38
2022-09-25T04:53:46.192Z,98064.16
2022-09-25T04:56:16.092Z,98070.16
2022-09-25T04:58:49.750Z,98071.88
2022-09-25T05:01:20.462Z,98061.66
2022-09-25T05:03:54.226Z,98076.34
2022-09-25T05:06:22.834Z,98077.41
2022-09-25T05:08:50.648Z,98072.28
2022-09-25T05:11:18.541Z,98080.84
2022-09-25T05:13:50.354Z,98085.16
2022-09-25T05:16:18.205Z,98083.41
2022-09-25T05:18:45.944Z,98087.78
2022-09-25T05:21:13.349Z,98093.72
2022-09-25T05:23:40.765Z,98092.97
2022-09-25T05:26:09.626Z,98089.50
2022-09-25T05:28:37.112Z,98094.81
2022-09-25T05:31:05.786Z,98098.88
2022-09-25T05:33:35.327Z,98100.56
2022-09-25T05:36:04.762Z,98098.84
2022-09-25T05:38:33.370Z,98109.97
2022-09-25T05:41:05.080Z,98110.78
2022-09-25T05:43:33.584Z,98109.00
2022-09-25T05:46:01.433Z,98114.34
2022-09-25T05:48:28.903Z,98115.91
2022-09-25T05:50:57.467Z,98119.34
2022-09-25T05:53:25.769Z,98117.72
2022-09-25T05:55:54.960Z,98126.38
2022-09-25T05:58:22.752Z,98121.31
2022-09-25T06:00:51.151Z,98123.16
2022-09-25T06:03:19.729Z,98126.88
2022-09-25T06:05:47.872Z,98116.69
2022-09-25T06:08:15.691Z,98133.97
2022-09-25T06:10:43.243Z,98131.41
2022-09-25T06:13:10.664Z,98135.69
2022-09-25T06:15:41.802Z,98138.22
2022-09-25T06:18:09.656Z,98144.13
2022-09-25T06:20:37.060Z,98143.25
2022-09-25T06:23:04.576Z,98151.75
2022-09-25T06:25:32.752Z,98148.34
2022-09-25T06:28:01.290Z,98160.22
2022-09-25T06:30:37.155Z,98153.38
2022-09-25T06:33:09.638Z,98149.00
2022-09-25T06:35:41.662Z,98155.94
2022-09-25T06:38:09.522Z,98160.22
2022-09-25T06:40:41.445Z,98155.13
2022-09-25T06:43:14.540Z,98157.69
2022-09-25T06:45:43.133Z,98172.19
2022-09-25T06:48:13.749Z,98178.38
2022-09-25T06:50:44.261Z,98178.38
2022-09-25T06:53:12.954Z,98182.56
2022-09-25T06:55:40.976Z,98174.84
2022-09-25T06:58:11.374Z,98179.25
2022-09-25T07:00:38.978Z,98182.81
2022-09-25T07:03:24.882Z,98186.22
2022-09-25T07:06:04.549Z,98180.13
2022-09-25T07:08:32.214Z,98185.31
2022-09-25T07:11:00.765Z,98189.50
2022-09-25T07:13:31.653Z,98197.22
2022-09-25T07:16:07.605Z,98203.31
2022-09-25T07:18:35.226Z,98200.69
2022-09-25T07:21:08.449Z,98193.91
2022-09-25T07:23:36.679Z,98203.31
2022-09-25T07:26:10.029Z,98217.06
2022-09-25T07:28:39.338Z,98218.75
2022-09-25T07:31:16.960Z,98214.53
2022-09-25T07:33:44.916Z,98224.84
2022-09-25T07:36:13.186Z,98224.88
2022-09-25T07:38:41.495Z,98235.06
2022-09-25T07:41:13.155Z,98234.16
2022-09-25T07:43:43.609Z,98229.91
2022-09-25T07:46:11.935Z,98241.88
2022-09-25T07:48:39.580Z,98247.94
2022-09-25T07:51:10.483Z,98253.97
2022-09-25T07:53:39.210Z,98238.47
2022-09-25T07:56:07.382Z,98245.31
2022-09-25T07:58:42.873Z,98258.22
2022-09-25T08:01:12.752Z,98254.81
2022-09-25T08:03:40.416Z,98268.50
2022-09-25T08:06:13.492Z,98267.66
2022-09-25T08:08:43.011Z,98261.63
2022-09-25T08:11:13.640Z,98262.41
2022-09-25T08:13:42.706Z,98275.25
2022-09-25T08:16:14.625Z,98277.88
2022-09-25T08:18:46.243Z,98281.16
2022-09-25T08:21:16.026Z,98279.56
2022-09-25T08:23:47.969Z,98288.91
2022-09-25T08:26:17.058Z,98285.47
2022-09-25T08:28:45.014Z,98294.09
2022-09-25T08:31:14.643Z,98296.72
2022-09-25T08:33:50.400Z,98298.53
2022-09-25T08:36:18.667Z,98319.88
2022-09-25T08:38:46.870Z,98307.91
2022-09-25T08:41:25.303Z,98325.13
2022-09-25T08:43:57.604Z,98321.84
2022-09-25T08:46:51.646Z,98324.38
2022-09-25T08:49:25.094Z,98329.63
2022-09-25T08:51:56.771Z,98321.94
2022-09-25T08:54:29.572Z,98333.84
2022-09-25T08:57:21.126Z,98342.53
2022-09-25T08:59:59.745Z,98347.47
2022-09-25T09:02:55.208Z,98346.75
2022-09-25T09:05:30.525Z,98356.09
2022-09-25T09:08:02.590Z,98357.75
2022-09-25T09:10:45.681Z,98354.31
2022-09-25T09:13:51.680Z,98355.16
2022-09-25T09:16:27.326Z,98367.00
2022-09-25T09:18:56.020Z,98367.78
2022-09-25T09:21:45.699Z,98371.34
2022-09-25T09:24:13.128Z,98372.16
2022-09-25T09:27:04.398Z,98373.19
2022-09-25T09:29:59.309Z,98374.28
2022-09-25T09:32:58.590Z,98383.94
2022-09-25T09:35:34.036Z,98392.44
2022-09-25T09:38:23.334Z,98390.78
2022-09-25T09:41:13.134Z,98396.84
2022-09-25T09:44:16.255Z,98384.72
2022-09-25T09:47:14.070Z,98407.00
2022-09-25T09:49:47.530Z,98401.63
2022-09-25T09:52:21.283Z,98407.59
2022-09-25T09:55:13.992Z,98406.72
2022-09-25T09:57:48.774Z,98409.41
2022-09-25T10:00:19.156Z,98402.59
2022-09-25T10:03:09.923Z,98401.28
2022-09-25T10:05:43.119Z,98407.41
2022-09-25T10:08:11.189Z,98405.06
2022-09-25T10:10:41.827Z,98401.03
2022-09-25T10:13:20.242Z,98393.59
2022-09-25T10:16:00.460Z,98401.56
2022-09-25T10:19:10.988Z,98406.75
2022-09-25T10:21:43.254Z,98412.53
2022-09-25T10:24:10.802Z,98408.03
2022-09-25T10:26:39.809Z,98415.56
2022-09-25T10:29:10.277Z,98428.41
2022-09-25T10:31:40.428Z,98423.16
2022-09-25T10:34:13.850Z,98435.13
2022-09-25T10:36:44.899Z,98423.91
2022-09-25T10:39:45.077Z,98434.38
2022-09-25T10:42:37.942Z,98433.41
2022-09-25T10:45:26.363Z,98437.59
2022-09-25T10:48:12.551Z,98435.78
2022-09-25T10:50:40.106Z,98431.50
2022-09-25T10:53:28.394Z,98439.41
2022-09-25T10:56:05.209Z,98429.06
2022-09-25T10:58:43.417Z,98433.28
2022-09-25T11:01:13.653Z,98440.88
2022-09-25T11:03:55.280Z,98446.03
2022-09-25T11:06:26.203Z,98440.69
2022-09-25T11:09:09.106Z,98443.22
2022-09-25T11:11:38.696Z,98452.63
2022-09-25T11:14:19.357Z,98454.16
2022-09-25T11:16:52.744Z,98451.59
2022-09-25T11:19:26.384Z,98467.06
2022-09-25T11:22:25.825Z,98461.88
2022-09-25T11:25:04.960Z,98468.63
2022-09-25T11:27:34.972Z,98474.59
2022-09-25T11:30:04.733Z,98474.56
2022-09-25T11:33:09.082Z,98468.63
2022-09-25T11:36:03.821Z,98479.72
2022-09-25T11:39:13.575Z,98475.47
2022-09-25T11:42:14.364Z,98483.19
2022-09-25T11:45:02.737Z,98486.44
2022-09-25T11:47:40.867Z,98484.75
2022-09-25T11:50:17.968Z,98481.34
2022-09-25T11:53:33.200Z,98496.19
2022-09-25T11:56:15.483Z,98498.81
2022-09-25T11:59:01.023Z,98492.84
2022-09-25T12:01:46.202Z,98491.28
2022-09-25T12:04:16.394Z,98496.53
2022-09-25T12:06:55.258Z,98494.09
2022-09-25T12:09:47.728Z,98479.75
2022-09-25T12:12:36.778Z,98493.59
2022-09-25T12:15:34.236Z,98503.44
2022-09-25T12:18:12.402Z,98493.16
2022-09-25T12:21:01.675Z,98496.03
2022-09-25T12:23:36.546Z,98481.66
2022-09-25T12:26:17.531Z,98486.44
2022-09-25T12:29:19.759Z,98497.16
2022-09-25T12:32:05.744Z,98494.72
2022-09-25T12:34:50.887Z,98501.53
2022-09-25T12:37:43.105Z,98510.81
2022-09-25T12:40:24.138Z,98512.25
2022-09-25T12:43:03.094Z,98512.81
2022-09-25T12:45:37.760Z,98528.97
2022-09-25T12:48:24.282Z,98515.91
2022-09-25T12:50:55.940Z,98521.09
2022-09-25T12:53:27.086Z,98519.94
2022-09-25T12:56:18.942Z,98521.53
2022-09-25T12:59:22.393Z,98523.25
2022-09-25T13:02:11.304Z,98521.41
2022-09-25T13:05:00.371Z,98528.09
2022-09-25T13:07:38.555Z,98514.38
2022-09-25T13:10:17.764Z,98526.44
2022-09-25T13:12:47.099Z,98526.28
2022-09-25T13:15:23.376Z,98530.56
2022-09-25T13:17:51.311Z,98522.91
2022-09-25T13:20:29.930Z,98530.66
2022-09-25T13:23:05.523Z,98528.91
2022-09-25T13:26:01.356Z,98538.44
2022-09-25T13:28:36.057Z,98529.72
2022-09-25T13:31:30.300Z,98536.63
2022-09-25T13:34:00.519Z,98536.41
2022-09-25T13:36:32.276Z,98540.69
2022-09-25T13:39:35.522Z,98550.03
2022-09-25T13:42:14.268Z,98549.16
2022-09-25T13:44:45.062Z,98549.00
2022-09-25T13:47:23.149Z,98548.19
2022-09-25T13:49:51.697Z,98545.44
2022-09-25T13:52:30.404Z,98547.19
2022-09-25T13:55:23.931Z,98561.09
2022-09-25T13:58:00.267Z,98555.88
2022-09-25T14:00:36.588Z,98571.47
2022-09-25T14:03:08.047Z,98560.31
2022-09-25T14:05:37.216Z,98568.09
2022-09-25T14:08:12.279Z,98570.66
2022-09-25T14:10:49.250Z,98574.16
2022-09-25T14:13:21.960Z,98569.72
2022-09-25T14:15:51.033Z,98575.66
2022-09-25T14:18:36.368Z,98577.50
2022-09-25T14:21:07.741Z,98577.28
2022-09-25T14:23:51.139Z,98575.66
2022-09-25T14:26:22.244Z,98564.25
2022-09-25T14:28:51.643Z,98575.50
2022-09-25T14:31:24.821Z,98584.09
2022-09-25T14:34:12.412Z,98589.28
2022-09-25T14:37:00.667Z,98588.16
2022-09-25T14:39:37.457Z,98589.75
2022-09-25T14:42:23.501Z,98594.94
2022-09-25T14:45:13.992Z,98601.72
2022-09-25T14:47:45.238Z,98598.25
2022-09-25T14:50:38.525Z,98600.91
2022-09-25T14:53:11.309Z,98603.25
2022-09-25T14:55:46.410Z,98608.34
2022-09-25T14:58:19.698Z,98613.47
2022-09-25T15:01:00.208Z,98605.69
2022-09-25T15:03:31.548Z,98599.53
2022-09-25T15:06:04.218Z,98610.78
2022-09-25T15:08:41.732Z,98616.78
2022-09-25T15:11:16.106Z,98618.34
2022-09-25T15:13:44.230Z,98613.94
2022-09-25T15:16:38.885Z,98627.75
2022-09-25T15:19:20.685Z,98621.72
2022-09-25T15:21:51.754Z,98619.03
2022-09-25T15:24:24.247Z,98619.88
2022-09-25T15:27:02.946Z,98631.09
2022-09-25T15:29:38.243Z,98627.63
2022-09-25T15:32:06.539Z,98622.41
2022-09-25T15:34:34.914Z,98630.16
2022-09-25T15:37:29.991Z,98632.84
2022-09-25T15:40:09.966Z,98638.72
2022-09-25T15:42:46.922Z,98638.72
2022-09-25T15:45:36.651Z,98646.56
2022-09-25T15:48:12.917Z,98649.97
2022-09-25T15:50:44.745Z,98646.41
2022-09-25T15:53:29.287Z,98644.78
2022-09-25T15:56:21.360Z,98658.59
2022-09-25T15:58:56.850Z,98656.72
2022-09-25T16:01:48.661Z,98650.59
2022-09-25T16:04:39.312Z,98655.78
2022-09-25T16:07:36.247Z,98655.09
2022-09-25T16:10:09.605Z,98652.41
2022-09-25T16:12:47.726Z,98651.50
2022-09-25T16:15:27.311Z,98653.28
2022-09-25T16:18:02.888Z,98646.25
2022-09-25T16:20:37.455Z,98642.00
2022-09-25T16:23:16.764Z,98647.16
2022-09-25T16:25:44.958Z,98651.38
2022-09-25T16:28:28.156Z,98649.78
2022-09-25T16:31:08.039Z,98638.66
2022-09-25T16:33:40.077Z,98653.22
2022-09-25T16:36:17.661Z,98654.06
2022-09-25T16:39:25.469Z,98659.44
2022-09-25T16:41:53.307Z,98658.38
2022-09-25T16:44:48.496Z,98654.13
2022-09-25T16:47:20.237Z,98664.34
2022-09-25T16:49:51.554Z,98650.44
2022-09-25T16:52:23.224Z,98665.09
2022-09-25T16:54:54.116Z,98664.22
2022-09-25T16:57:23.519Z,98655.56
2022-09-25T16:59:51.957Z,98668.47
2022-09-25T17:02:25.512Z,98665.19
2022-09-25T17:04:53.147Z,98667.69
2022-09-25T17:07:22.786Z,98658.25
2022-09-25T17:09:50.337Z,98663.41
2022-09-25T17:12:26.882Z,98665.09
2022-09-25T17:14:55.142Z,98663.38
2022-09-25T17:17:23.097Z,98656.47
2022-09-25T17:19:50.790Z,98659.88
2022-09-25T17:22:22.713Z,98664.22
2022-09-25T17:24:50.979Z,98668.50
2022-09-25T17:27:20.525Z,98664.22
2022-09-25T17:29:48.292Z,98670.31
2022-09-25T17:32:19.345Z,98666.91
2022-09-25T17:34:47.001Z,98666.09
2022-09-25T17:37:14.685Z,98661.69
2022-09-25T17:39:42.124Z,98658.41
2022-09-25T17:42:10.766Z,98665.19
2022-09-25T17:44:42.971Z,98672.94
2022-09-25T17:47:10.791Z,98672.06
2022-09-25T17:49:38.221Z,98678.91
2022-09-25T17:52:05.746Z,98677.16
2022-09-25T17:54:33.273Z,98665.00
2022-09-25T17:57:00.680Z,98665.09
2022-09-25T17:59:28.146Z,98672.00
2022-09-25T18:01:57.371Z,98678.91
2022-09-25T18:04:25.865Z,98684.06
2022-09-25T18:06:53.630Z,98672.09
2022-09-25T18:09:21.416Z,98679.03
2022-09-25T18:11:48.927Z,98673.81
2022-09-25T18:14:16.913Z,98675.53
2022-09-25T18:16:45.020Z,98674.63
2022-09-25T18:19:36.280Z,98684.06
2022-09-25T18:22:21.958Z,98675.47
2022-09-25T18:24:56.418Z,98686.28
2022-09-25T18:27:26.852Z,98673.03
2022-09-25T18:29:54.290Z,98677.22
2022-09-25T18:32:24.731Z,98683.34
2022-09-25T18:34:52.329Z,98679.91
2022-09-25T18:37:20.631Z,98675.59
2022-09-25T18:39:48.228Z,98673.84
2022-09-25T18:42:15.882Z,98677.22
2022-09-25T18:44:43.462Z,98673.75
2022-09-25T18:47:11.966Z,98678.06
2022-09-25T18:49:39.396Z,98680.66
2022-09-25T18:52:06.944Z,98682.44
2022-09-25T18:54:34.953Z,98685.81
2022-09-25T18:57:02.550Z,98684.06
2022-09-25T18:59:30.560Z,98686.66
2022-09-25T19:01:58.351Z,98679.66
2022-09-25T19:04:26.574Z,98696.06
2022-09-25T19:06:54.108Z,98695.22
2022-09-25T19:09:27.361Z,98693.47
2022-09-25T19:11:55.986Z,98698.56
2022-09-25T19:14:24.200Z,98687.47
2022-09-25T19:16:54.474Z,98692.63
2022-09-25T19:19:22.238Z,98695.16
2022-09-25T19:21:49.699Z,98697.69
2022-09-25T19:24:18.453Z,98700.28
2022-09-25T19:26:45.994Z,98698.56
2022-09-25T19:29:13.780Z,98702.03
2022-09-25T19:31:41.882Z,98707.16
2022-09-25T19:34:09.980Z,98704.53
2022-09-25T19:36:38.627Z,98711.47
2022-09-25T19:39:06.194Z,98711.47
2022-09-25T19:41:35.835Z,98705.41
2022-09-25T19:44:12.961Z,98712.28
2022-09-25T19:46:42.642Z,98704.47
2022-09-25T19:49:11.603Z,98709.69
2022-09-25T19:51:39.615Z,98696.75
2022-09-25T19:54:08.818Z,98718.38
2022-09-25T19:56:40.912Z,98719.25
2022-09-25T19:59:12.921Z,98714.88
2022-09-25T20:01:42.879Z,98714.00
2022-09-25T20:04:18.107Z,98705.31
2022-09-25T20:06:47.073Z,98705.44
2022-09-25T20:09:14.830Z,98714.88
2022-09-25T20:11:42.801Z,98700.28
2022-09-25T20:14:10.386Z,98705.44
2022-09-25T20:16:37.892Z,98716.59
2022-09-25T20:19:06.900Z,98714.00
2022-09-25T20:21:38.728Z,98705.22
2022-09-25T20:24:08.745Z,98727.56
2022-09-25T20:26:36.661Z,98722.41
2022-09-25T20:29:12.366Z,98719.88
2022-09-25T20:31:43.162Z,98725.00
2022-09-25T20:34:16.438Z,98721.56
2022-09-25T20:36:46.683Z,98722.38
2022-09-25T20:39:21.116Z,98714.53
2022-09-25T20:41:50.374Z,98719.69
2022-09-25T20:44:17.823Z,98717.97
2022-09-25T20:46:45.320Z,98727.34
2022-09-25T20:49:13.275Z,98716.97
2022-09-25T20:51:41.310Z,98724.75
2022-09-25T20:54:10.197Z,98717.72
2022-09-25T20:56:39.047Z,98717.69
2022-09-25T20:59:06.441Z,98723.78
2022-09-25T21:01:36.928Z,98722.06
2022-09-25T21:04:08.174Z,98728.03
2022-09-25T21:06:39.472Z,98725.41
2022-09-25T21:09:17.440Z,98733.13
2022-09-25T21:11:45.056Z,98720.13
2022-09-25T21:14:19.662Z,98717.47
2022-09-25T21:16:48.305Z,98721.81
2022-09-25T21:19:17.374Z,98729.56
2022-09-25T21:21:45.371Z,98730.38
2022-09-25T21:24:17.620Z,98733.88
2022-09-25T21:26:46.201Z,98735.72
2022-09-25T21:29:16.029Z,98723.69
2022-09-25T21:31:49.314Z,98734.94
2022-09-25T21:34:17.572Z,98745.19
2022-09-25T21:36:46.575Z,98746.91
2022-09-25T21:39:14.490Z,98746.81
2022-09-25T21:41:41.974Z,98752.88
2022-09-25T21:44:19.230Z,98748.50
2022-09-25T21:46:46.853Z,98736.34
2022-09-25T21:49:19.370Z,98750.97
2022-09-25T21:51:47.631Z,98744.84
2022-09-25T21:54:16.260Z,98747.47
2022-09-25T21:56:44.640Z,98746.50
2022-09-25T21:59:12.994Z,98741.25
2022-09-25T22:01:41.316Z,98746.38
2022-09-25T22:04:12.154Z,98747.22
2022-09-25T22:06:42.388Z,98747.19
2022-09-25T22:09:13.569Z,98760.16
2022-09-25T22:11:42.596Z,98753.25
2022-09-25T22:14:14.918Z,98757.63
2022-09-25T22:16:45.549Z,98756.75
2022-09-25T22:19:17.498Z,98764.59
2022-09-25T22:21:47.385Z,98765.47
2022-09-25T22:24:15.578Z,98749.03
2022-09-25T22:26:45.267Z,98757.75
2022-09-25T22:29:13.183Z,98749.84
2022-09-25T22:31:43.569Z,98760.31
2022-09-25T22:34:18.925Z,98762.97
2022-09-25T22:36:47.386Z,98771.47
2022-09-25T22:39:17.114Z,98768.06
2022-09-25T22:41:45.602Z,98751.59
2022-09-25T22:44:13.085Z,98765.50
2022-09-25T22:46:40.515Z,98767.19
2022-09-25T22:49:07.913Z,98769.78
2022-09-25T22:51:35.504Z,98765.50
2022-09-25T22:54:02.991Z,98746.38
2022-09-25T22:56:34.848Z,98769.69
2022-09-25T22:59:08.177Z,98768.91
2022-09-25T23:01:50.643Z,98754.13
2022-09-25T23:04:20.882Z,98772.28
2022-09-25T23:06:49.338Z,98775.59
2022-09-25T23:09:27.439Z,98767.13
2022-09-25T23:11:56.908Z,98762.50
2022-09-25T23:14:28.410Z,98789.22
2022-09-25T23:16:56.878Z,98765.84
2022-09-25T23:19:25.300Z,98767.47
2022-09-25T23:21:54.030Z,98786.50
2022-09-25T23:24:22.712Z,98778.66
2022-09-25T23:26:51.263Z,98767.50
2022-09-25T23:29:20.365Z,98789.06
2022-09-25T23:31:49.066Z,98789.00
2022-09-25T23:34:17.380Z,98788.06
2022-09-25T23:36:44.845Z,98766.41
2022-09-25T23:39:17.821Z,98764.69
2022-09-25T23:41:45.703Z,98777.56
2022-09-25T23:44:13.379Z,98787.03
2022-09-25T23:46:42.355Z,98799.13
2022-09-25T23:49:10.912Z,98781.78
2022-09-25T23:51:38.768Z,98784.28
2022-09-25T23:54:10.129Z,98795.56
2022-09-25T23:56:38.830Z,98802.50
2022-09-25T23:59:06.410Z,98800.78
